createdAt,value
2024-05-09T00:03:41.754Z,95.30
2024-05-09T00:08:44.249Z,95.59
2024-05-09T00:13:47.307Z,95.82
2024-05-09T00:18:49.334Z,95.78
2024-05-09T00:23:51.305Z,95.43
2024-05-09T00:28:53.326Z,95.98
2024-05-09T00:33:55.390Z,96.20
2024-05-09T00:38:57.480Z,96.29
2024-05-09T00:43:59.889Z,96.04
2024-05-09T00:49:02.081Z,96.51
2024-05-09T00:54:05.484Z,97.21
2024-05-09T00:59:08.602Z,97.49
2024-05-09T01:04:11.453Z,97.79
2024-05-09T01:09:13.567Z,97.86
2024-05-09T01:14:15.478Z,97.93
2024-05-09T01:19:26.963Z,97.78
2024-05-09T01:24:29.583Z,97.73
2024-05-09T01:29:31.827Z,97.76
2024-05-09T01:34:33.756Z,97.62
2024-05-09T01:39:36.329Z,97.49
2024-05-09T01:44:38.404Z,97.38
2024-05-09T01:49:40.860Z,97.48
2024-05-09T01:54:43.063Z,97.69
2024-05-09T01:59:45.142Z,97.71
2024-05-09T02:04:47.932Z,97.88
2024-05-09T02:09:53.436Z,97.57
2024-05-09T02:14:55.697Z,97.46
2024-05-09T02:19:58.084Z,97.74
2024-05-09T02:25:00.791Z,97.42
2024-05-09T02:30:04.720Z,97.52
2024-05-09T02:35:08.115Z,97.38
2024-05-09T02:40:14.613Z,97.61
2024-05-09T02:45:20.041Z,97.82
2024-05-09T02:50:29.895Z,97.89
2024-05-09T02:55:40.043Z,97.36
2024-05-09T03:00:43.129Z,97.53
2024-05-09T03:05:45.852Z,97.68
2024-05-09T03:10:48.377Z,97.69
2024-05-09T03:15:50.517Z,97.64
2024-05-09T03:20:53.042Z,97.51
2024-05-09T03:25:55.076Z,97.54
2024-05-09T03:30:57.018Z,97.78
2024-05-09T03:35:59.151Z,97.61
2024-05-09T03:41:01.294Z,97.85
2024-05-09T03:46:03.604Z,98.09
2024-05-09T03:51:06.854Z,97.86
2024-05-09T03:56:08.937Z,98.13
2024-05-09T04:01:10.987Z,98.07
2024-05-09T04:06:21.366Z,97.54
2024-05-09T04:11:23.369Z,97.67
2024-05-09T04:16:25.702Z,97.87
2024-05-09T04:21:27.640Z,97.88
2024-05-09T04:26:29.610Z,98.19
2024-05-09T04:31:36.112Z,98.28
2024-05-09T04:36:39.665Z,98.86
2024-05-09T04:41:43.950Z,99.38
2024-05-09T04:46:47.638Z,99.29
2024-05-09T04:51:49.613Z,99.32
2024-05-09T04:56:51.685Z,99.09
2024-05-09T05:01:53.818Z,99.34
2024-05-09T05:06:57.747Z,99.00
2024-05-09T05:12:02.908Z,98.81
2024-05-09T05:17:05.239Z,98.88
2024-05-09T05:22:07.320Z,98.04
2024-05-09T05:27:09.847Z,97.46
2024-05-09T05:32:12.070Z,97.37
2024-05-09T05:37:14.241Z,95.18
2024-05-09T05:42:36.363Z,95.27
2024-05-09T05:47:38.934Z,94.25
2024-05-09T05:52:40.959Z,93.03
2024-05-09T05:57:43.750Z,92.86
2024-05-09T06:02:45.874Z,91.84
2024-05-09T06:07:47.998Z,90.14
2024-05-09T06:12:50.409Z,89.61
2024-05-09T06:17:52.665Z,87.31
2024-05-09T06:22:54.691Z,84.74
2024-05-09T06:27:57.002Z,85.25
2024-05-09T06:32:59.135Z,82.54
2024-05-09T06:38:01.570Z,83.71
2024-05-09T06:43:03.976Z,83.08
2024-05-09T06:48:07.197Z,83.65
2024-05-09T06:53:09.894Z,81.97
2024-05-09T06:58:12.167Z,80.88
2024-05-09T07:03:18.562Z,81.25
2024-05-09T07:08:21.566Z,79.73
2024-05-09T07:13:24.051Z,80.10
2024-05-09T07:18:26.724Z,78.72
2024-05-09T07:23:28.819Z,76.30
2024-05-09T07:28:30.946Z,71.56
2024-05-09T07:33:33.148Z,72.24
2024-05-09T07:38:35.568Z,72.35
2024-05-09T07:43:37.912Z,68.33
2024-05-09T07:53:50.616Z,67.03
2024-05-09T07:58:55.768Z,66.94
2024-05-09T08:03:57.891Z,66.49
2024-05-09T08:09:07.689Z,67.01
2024-05-09T08:14:12.908Z,66.28
2024-05-09T08:19:15.198Z,64.56
2024-05-09T08:24:17.495Z,64.91
2024-05-09T08:29:19.819Z,64.89
2024-05-09T08:34:22.019Z,62.07
2024-05-09T08:39:24.621Z,62.38
2024-05-09T08:44:26.748Z,61.86
2024-05-09T08:49:30.274Z,61.21
2024-05-09T08:54:32.907Z,61.00
2024-05-09T08:59:40.719Z,58.29
2024-05-09T09:04:51.093Z,58.23
2024-05-09T09:09:54.827Z,57.40
2024-05-09T09:15:00.334Z,55.36
2024-05-09T09:20:11.304Z,57.26
2024-05-09T09:25:16.746Z,54.80
2024-05-09T09:30:33.998Z,52.97
2024-05-09T09:35:54.263Z,52.86
2024-05-09T09:40:56.757Z,52.45
2024-05-09T09:46:01.092Z,52.40
2024-05-09T09:51:03.691Z,52.96
2024-05-09T09:56:08.819Z,51.73
2024-05-09T10:01:11.418Z,53.16
2024-05-09T10:06:14.310Z,51.95
2024-05-09T10:11:22.272Z,52.31
2024-05-09T10:16:24.875Z,52.45
2024-05-09T10:21:27.735Z,51.13
2024-05-09T10:26:37.479Z,49.50
2024-05-09T10:31:44.200Z,51.33
2024-05-09T10:36:46.498Z,51.41
2024-05-09T10:41:49.718Z,51.86
2024-05-09T10:46:54.747Z,51.65
2024-05-09T10:51:57.321Z,52.29
2024-05-09T10:56:59.265Z,52.37
2024-05-09T11:02:04.474Z,51.99
2024-05-09T11:07:12.796Z,50.54
2024-05-09T11:12:15.794Z,51.00
2024-05-09T11:17:26.758Z,51.21
2024-05-09T11:22:35.532Z,51.31
2024-05-09T11:27:37.618Z,51.33
2024-05-09T11:32:40.323Z,51.50
2024-05-09T11:37:43.043Z,50.31
2024-05-09T11:42:49.957Z,49.73
2024-05-09T11:47:54.309Z,51.10
2024-05-09T11:52:56.636Z,51.60
2024-05-09T11:57:58.798Z,50.93
2024-05-09T12:03:01.104Z,49.03
2024-05-09T12:08:03.596Z,49.08
2024-05-09T12:13:06.951Z,50.78
2024-05-09T12:18:09.841Z,50.02
2024-05-09T12:23:12.103Z,50.43
2024-05-09T12:28:16.041Z,51.54
2024-05-09T12:33:20.713Z,51.62
2024-05-09T12:38:23.040Z,52.06
2024-05-09T12:43:25.442Z,51.65
2024-05-09T12:48:28.053Z,49.65
2024-05-09T12:53:30.485Z,51.50
2024-05-09T12:58:33.336Z,48.80
2024-05-09T13:03:35.437Z,49.76
2024-05-09T13:08:37.667Z,50.34
2024-05-09T13:13:39.780Z,49.86
2024-05-09T13:18:42.220Z,50.60
2024-05-09T13:23:45.076Z,50.62
2024-05-09T13:28:47.036Z,49.11
2024-05-09T13:33:49.099Z,47.61
2024-05-09T13:38:51.108Z,48.74
2024-05-09T13:43:53.720Z,48.60
2024-05-09T13:48:55.724Z,48.07
2024-05-09T13:53:59.345Z,49.17
2024-05-09T13:59:02.227Z,49.72
2024-05-09T14:04:04.521Z,49.36
2024-05-09T14:09:09.720Z,49.65
2024-05-09T14:14:11.775Z,49.56
2024-05-09T14:19:15.095Z,50.55
2024-05-09T14:24:17.308Z,51.07
2024-05-09T14:29:19.394Z,51.01
2024-05-09T14:34:21.457Z,48.81
2024-05-09T14:39:23.503Z,48.33
2024-05-09T14:44:25.436Z,48.59
2024-05-09T14:49:27.518Z,48.69
2024-05-09T14:54:29.737Z,49.82
2024-05-09T14:59:31.799Z,50.55
2024-05-09T15:04:33.839Z,51.42
2024-05-09T15:09:36.391Z,50.31
2024-05-09T15:14:38.779Z,48.08
2024-05-09T15:19:41.590Z,47.35
2024-05-09T15:24:45.155Z,48.19
2024-05-09T15:29:47.144Z,48.04
2024-05-09T15:34:49.438Z,47.74
2024-05-09T15:39:51.692Z,46.98
2024-05-09T15:44:54.802Z,47.07
2024-05-09T15:49:56.978Z,47.06
2024-05-09T15:54:59.199Z,48.15
2024-05-09T16:00:01.173Z,48.84
2024-05-09T16:05:03.554Z,49.50
2024-05-09T16:10:07.137Z,50.12
2024-05-09T16:15:09.475Z,50.66
2024-05-09T16:20:15.167Z,49.85
2024-05-09T16:25:20.915Z,49.44
2024-05-09T16:30:31.423Z,49.41
2024-05-09T16:35:40.164Z,48.71
2024-05-09T16:40:43.227Z,48.78
2024-05-09T16:45:45.334Z,48.36
2024-05-09T16:50:47.924Z,47.24
2024-05-09T16:55:49.980Z,47.35
2024-05-09T17:00:52.534Z,47.66
2024-05-09T17:05:54.768Z,47.60
2024-05-09T17:10:57.213Z,47.21
2024-05-09T17:15:59.584Z,47.20
2024-05-09T17:21:01.645Z,47.73
2024-05-09T17:26:04.182Z,48.47
2024-05-09T17:31:07.363Z,48.66
2024-05-09T17:36:09.503Z,49.30
2024-05-09T17:41:11.850Z,48.75
2024-05-09T17:46:13.814Z,49.41
2024-05-09T17:51:16.078Z,51.39
2024-05-09T17:56:18.689Z,52.68
2024-05-09T18:01:20.867Z,53.90
2024-05-09T18:06:22.873Z,54.83
2024-05-09T18:11:25.655Z,55.07
2024-05-09T18:16:30.935Z,56.34
2024-05-09T18:21:33.037Z,57.36
2024-05-09T18:26:35.103Z,58.35
2024-05-09T18:31:37.232Z,60.07
2024-05-09T18:36:42.390Z,61.00
2024-05-09T18:41:45.366Z,62.20
2024-05-09T18:46:47.216Z,63.24
2024-05-09T18:51:49.225Z,63.78
2024-05-09T18:56:51.303Z,64.45
2024-05-09T19:01:53.358Z,65.10
2024-05-09T19:06:56.036Z,65.66
2024-05-09T19:12:03.218Z,66.12
2024-05-09T19:17:06.104Z,67.13
2024-05-09T19:22:08.715Z,67.56
2024-05-09T19:27:11.307Z,67.88
2024-05-09T19:32:13.708Z,68.50
2024-05-09T19:37:15.982Z,68.65
2024-05-09T19:42:18.301Z,69.29
2024-05-09T19:47:20.957Z,69.70
2024-05-09T19:52:27.418Z,70.06
2024-05-09T19:57:30.424Z,70.34
2024-05-09T20:02:33.111Z,70.68
2024-05-09T20:07:37.623Z,71.15
2024-05-09T20:12:40.174Z,71.15
2024-05-09T20:17:43.836Z,71.46
2024-05-09T20:22:47.370Z,71.17
2024-05-09T20:27:49.536Z,71.63
2024-05-09T20:32:53.930Z,71.39
2024-05-09T20:37:56.566Z,71.66
2024-05-09T20:42:59.548Z,72.13
2024-05-09T20:48:03.435Z,72.78
2024-05-09T20:53:05.729Z,72.53
2024-05-09T20:58:08.576Z,72.97
2024-05-09T21:03:13.444Z,72.75
2024-05-09T21:08:16.480Z,73.36
2024-05-09T21:13:18.714Z,73.56
2024-05-09T21:18:21.381Z,73.29
2024-05-09T21:23:23.348Z,74.18
2024-05-09T21:28:25.467Z,74.27
2024-05-09T21:33:29.440Z,74.62
2024-05-09T21:38:32.665Z,74.59
2024-05-09T21:43:34.671Z,74.82
2024-05-09T21:48:37.265Z,75.03
2024-05-09T21:53:40.197Z,75.20
2024-05-09T21:58:42.449Z,75.54
2024-05-09T22:03:44.660Z,75.32
2024-05-09T22:08:47.157Z,75.74
2024-05-09T22:13:49.283Z,75.75
2024-05-09T22:18:51.373Z,75.31
2024-05-09T22:23:53.363Z,75.29
2024-05-09T22:28:55.221Z,75.55
2024-05-09T22:33:57.493Z,75.52
2024-05-09T22:38:59.839Z,75.74
2024-05-09T22:44:02.499Z,75.88
2024-05-09T22:49:04.746Z,76.13
2024-05-09T22:54:07.711Z,76.61
2024-05-09T22:59:09.852Z,76.44
2024-05-09T23:04:11.946Z,76.43
2024-05-09T23:09:14.290Z,76.69
2024-05-09T23:14:16.708Z,76.52
2024-05-09T23:19:19.091Z,76.48
2024-05-09T23:24:21.223Z,76.70
2024-05-09T23:29:23.122Z,76.54
2024-05-09T23:34:25.216Z,76.54
2024-05-09T23:39:27.339Z,76.68
2024-05-09T23:44:29.249Z,77.25
2024-05-09T23:49:31.341Z,77.19
2024-05-09T23:54:33.467Z,77.03
2024-05-09T23:59:35.646Z,77.06
